createdAt,value
2017-12-21T04:31:06.934Z,4.75
2017-12-21T04:33:34.508Z,4.00
2017-12-21T04:36:02.909Z,4.30
2017-12-21T04:38:30.487Z,4.25
2017-12-21T04:40:58.061Z,4.50
2017-12-21T04:43:25.661Z,3.90
2017-12-21T04:45:53.997Z,4.50
2017-12-21T04:48:21.565Z,4.20
2017-12-21T04:50:49.161Z,4.50
2017-12-21T04:53:16.732Z,4.87
2017-12-21T04:55:44.352Z,4.37
2017-12-21T04:58:11.920Z,4.85
2017-12-21T05:00:40.257Z,4.78
2017-12-21T05:03:07.890Z,4.78
2017-12-21T05:05:35.462Z,3.83
2017-12-21T05:08:03.029Z,4.35
2017-12-21T05:10:30.666Z,4.95
2017-12-21T05:12:58.238Z,4.53
2017-12-21T05:15:25.809Z,5.50
2017-12-21T05:17:53.431Z,5.60
2017-12-21T05:20:21.008Z,5.12
2017-12-21T05:22:49.946Z,5.07
2017-12-21T05:25:17.567Z,4.65
2017-12-21T05:27:45.145Z,4.90
2017-12-21T05:30:12.729Z,5.70
2017-12-21T05:32:40.349Z,4.43
2017-12-21T05:35:07.917Z,4.05
2017-12-21T05:37:35.497Z,5.03
2017-12-21T05:40:03.092Z,4.85
2017-12-21T05:42:30.662Z,4.10
2017-12-21T05:44:58.389Z,4.68
2017-12-21T05:47:26.726Z,4.40
2017-12-21T05:49:54.298Z,4.43
2017-12-21T05:52:21.906Z,4.12
2017-12-21T05:54:49.472Z,4.65
2017-12-21T05:57:17.042Z,4.40
2017-12-21T05:59:44.681Z,4.93
2017-12-21T06:02:12.249Z,4.40
2017-12-21T06:04:39.817Z,4.82
2017-12-21T06:07:07.421Z,4.93
2017-12-21T06:09:34.993Z,5.05
2017-12-21T06:12:03.333Z,5.03
2017-12-21T06:14:30.930Z,4.50
2017-12-21T06:16:59.269Z,5.30
2017-12-21T06:19:26.841Z,4.20
2017-12-21T06:21:54.465Z,3.37
2017-12-21T06:24:22.044Z,3.85
2017-12-21T06:26:49.629Z,3.90
2017-12-21T06:29:17.245Z,3.95
2017-12-21T06:31:44.818Z,4.28
2017-12-21T06:34:12.389Z,3.80
2017-12-21T06:36:40.005Z,4.25
2017-12-21T06:39:07.573Z,3.55
2017-12-21T06:41:35.145Z,3.30
2017-12-21T06:44:02.762Z,3.92
2017-12-21T06:46:31.097Z,4.57
2017-12-21T06:48:58.666Z,4.00
2017-12-21T06:51:26.281Z,3.67
2017-12-21T06:53:53.853Z,4.57
2017-12-21T06:56:21.421Z,4.40
2017-12-21T06:58:49.038Z,5.28
2017-12-21T07:01:16.614Z,4.07
2017-12-21T07:03:44.193Z,5.00
2017-12-21T07:06:11.801Z,4.80
2017-12-21T07:08:40.141Z,4.53
2017-12-21T07:11:07.710Z,4.72
2017-12-21T07:13:35.498Z,5.10
2017-12-21T07:16:03.833Z,5.85
2017-12-21T07:18:32.254Z,4.80
2017-12-21T07:21:00.636Z,5.72
2017-12-21T07:23:28.980Z,5.60
2017-12-21T07:25:56.629Z,5.55
2017-12-21T07:28:24.257Z,5.70
2017-12-21T07:30:51.826Z,5.78
2017-12-21T07:33:19.401Z,5.95
2017-12-21T07:35:47.028Z,5.87
2017-12-21T07:38:14.596Z,5.75
2017-12-21T07:40:42.170Z,7.53
2017-12-21T07:43:09.809Z,7.10
2017-12-21T07:45:37.385Z,6.85
2017-12-21T07:48:04.969Z,7.37
2017-12-21T07:50:32.597Z,7.35
2017-12-21T07:53:00.170Z,8.45
2017-12-21T07:55:27.745Z,7.45
2017-12-21T07:57:55.354Z,7.28
2017-12-21T08:00:22.929Z,7.50
2017-12-21T08:02:50.515Z,6.85
2017-12-21T08:05:18.122Z,6.50
2017-12-21T08:07:46.493Z,6.20
2017-12-21T08:10:14.831Z,7.30
2017-12-21T08:12:42.453Z,6.53
2017-12-21T08:15:10.135Z,6.90
2017-12-21T08:17:37.717Z,6.87
2017-12-21T08:20:05.357Z,6.93
2017-12-21T08:22:32.924Z,7.30
2017-12-21T08:25:00.493Z,6.53
2017-12-21T08:27:28.196Z,6.93
2017-12-21T08:29:56.537Z,7.53
2017-12-21T08:32:24.119Z,7.57
2017-12-21T08:34:52.486Z,6.85
2017-12-21T08:37:20.062Z,7.25
2017-12-21T08:39:48.401Z,7.45
2017-12-21T08:42:16.006Z,7.70
2017-12-21T08:44:43.580Z,7.78
2017-12-21T08:47:11.177Z,7.03
2017-12-21T08:49:38.878Z,7.78
2017-12-21T08:52:08.934Z,7.22
2017-12-21T08:54:36.590Z,6.53
2017-12-21T08:57:04.162Z,6.12
2017-12-21T08:59:31.765Z,6.60
2017-12-21T09:02:00.130Z,6.87
2017-12-21T09:04:27.701Z,6.18
2017-12-21T09:06:56.126Z,6.28
2017-12-21T09:09:23.749Z,7.20
2017-12-21T09:11:52.085Z,5.70
2017-12-21T09:14:19.663Z,6.75
2017-12-21T09:16:48.049Z,6.85
2017-12-21T09:19:16.389Z,7.60
2017-12-21T09:21:43.977Z,8.55
2017-12-21T09:24:11.580Z,9.35
2017-12-21T09:26:39.186Z,7.60
2017-12-21T09:29:06.757Z,7.55
2017-12-21T09:31:35.102Z,7.45
2017-12-21T09:34:02.714Z,7.20
2017-12-21T09:36:30.293Z,6.80
2017-12-21T09:38:57.870Z,6.53
2017-12-21T09:41:25.502Z,7.28
2017-12-21T09:43:53.078Z,6.03
2017-12-21T09:46:20.662Z,6.50
2017-12-21T09:48:48.294Z,7.55
2017-12-21T09:51:15.879Z,7.68
2017-12-21T09:53:43.449Z,6.32
2017-12-21T09:56:11.088Z,7.55
2017-12-21T09:58:38.666Z,6.53
2017-12-21T10:01:06.237Z,6.03
2017-12-21T10:03:33.829Z,5.78
2017-12-21T10:06:01.401Z,6.07
2017-12-21T10:08:28.997Z,5.37
2017-12-21T10:10:56.624Z,5.75
2017-12-21T10:13:24.170Z,6.53
2017-12-21T10:15:51.833Z,4.95
2017-12-21T10:18:19.397Z,5.95
2017-12-21T10:20:46.966Z,5.47
2017-12-21T10:23:14.561Z,5.65
2017-12-21T10:25:42.186Z,5.53
2017-12-21T10:28:09.758Z,5.40
2017-12-21T10:30:37.325Z,5.72
2017-12-21T10:33:04.946Z,5.45
2017-12-21T10:35:32.517Z,7.93
2017-12-21T10:38:00.093Z,7.25
2017-12-21T10:40:27.738Z,10.23
2017-12-21T10:42:55.316Z,10.65
2017-12-21T10:45:22.889Z,10.82
2017-12-21T10:47:51.257Z,12.98
2017-12-21T10:50:18.877Z,10.82
2017-12-21T10:52:46.453Z,8.95
2017-12-21T10:55:14.029Z,9.90
2017-12-21T10:57:41.677Z,8.35
2017-12-21T11:00:09.257Z,9.05
2017-12-21T11:02:36.837Z,10.25
2017-12-21T11:05:05.211Z,9.30
2017-12-21T11:07:33.798Z,7.37
2017-12-21T11:10:02.145Z,8.55
2017-12-21T11:12:29.721Z,6.85
2017-12-21T11:14:57.318Z,6.65
2017-12-21T11:17:24.895Z,5.68
2017-12-21T11:19:52.466Z,5.60
2017-12-21T11:22:20.062Z,5.72
2017-12-21T11:24:48.397Z,5.07
2017-12-21T11:27:15.977Z,5.30
2017-12-21T11:29:43.598Z,5.18
2017-12-21T11:32:11.177Z,4.75
2017-12-21T11:34:38.749Z,4.68
2017-12-21T11:37:06.369Z,5.15
2017-12-21T11:39:33.945Z,5.55
2017-12-21T11:42:01.522Z,4.85
2017-12-21T11:44:29.141Z,4.78
2017-12-21T11:46:56.722Z,4.85
2017-12-21T11:49:24.297Z,5.00
2017-12-21T11:51:51.913Z,5.07
2017-12-21T11:54:19.481Z,4.95
2017-12-21T11:56:47.054Z,4.50
2017-12-21T11:59:14.658Z,3.85
2017-12-21T12:01:42.999Z,3.90
2017-12-21T12:04:10.568Z,4.15
2017-12-21T12:06:38.167Z,4.40
2017-12-21T12:09:06.514Z,3.87
2017-12-21T12:11:34.085Z,4.00
2017-12-21T12:14:01.677Z,4.20
2017-12-21T12:16:29.249Z,4.07
2017-12-21T12:18:56.858Z,4.43
2017-12-21T12:21:24.438Z,3.97
2017-12-21T12:23:52.778Z,4.20
2017-12-21T12:26:20.449Z,3.53
2017-12-21T12:28:48.021Z,4.10
2017-12-21T12:31:16.357Z,4.15
2017-12-21T12:33:44.086Z,4.50
2017-12-21T12:36:11.652Z,4.57
2017-12-21T12:38:39.226Z,5.03
2017-12-21T12:41:06.853Z,3.75
2017-12-21T12:43:35.263Z,4.00
2017-12-21T12:46:02.834Z,4.40
2017-12-21T12:48:30.445Z,4.50
2017-12-21T12:50:58.785Z,4.22
2017-12-21T12:53:26.358Z,4.72
2017-12-21T12:55:53.986Z,4.50
2017-12-21T12:58:21.562Z,3.92
2017-12-21T13:00:49.146Z,3.55
2017-12-21T13:03:17.541Z,3.55
2017-12-21T13:05:45.877Z,4.28
2017-12-21T13:08:13.445Z,3.35
2017-12-21T13:10:41.069Z,4.15
2017-12-21T13:13:08.641Z,3.95
2017-12-21T13:15:36.214Z,4.43
2017-12-21T13:18:03.810Z,4.53
2017-12-21T13:20:31.386Z,4.47
2017-12-21T13:22:59.004Z,4.37
2017-12-21T13:25:26.573Z,4.12
2017-12-21T13:27:54.962Z,5.30
2017-12-21T13:30:22.558Z,3.92
2017-12-21T13:32:50.132Z,5.05
2017-12-21T13:35:17.717Z,4.82
2017-12-21T13:37:46.103Z,6.30
2017-12-21T13:40:14.452Z,5.70
2017-12-21T13:42:42.853Z,4.93
2017-12-21T13:45:11.241Z,5.03
2017-12-21T13:47:39.582Z,4.43
2017-12-21T13:50:07.149Z,5.18
2017-12-21T13:52:34.775Z,5.40
2017-12-21T13:55:02.354Z,5.05
2017-12-21T13:57:29.931Z,4.32
2017-12-21T13:59:57.529Z,5.05
2017-12-21T14:02:25.101Z,5.20
2017-12-21T14:04:52.685Z,6.00
2017-12-21T14:07:20.305Z,5.20
2017-12-21T14:09:47.873Z,5.90
2017-12-21T14:12:15.454Z,6.47
2017-12-21T14:14:43.046Z,5.40
2017-12-21T14:17:10.622Z,5.22
2017-12-21T14:19:39.008Z,5.47
2017-12-21T14:22:06.586Z,6.45
2017-12-21T14:24:34.169Z,6.60
2017-12-21T14:27:01.790Z,6.62
2017-12-21T14:29:29.366Z,6.25
2017-12-21T14:31:56.937Z,6.20
2017-12-21T14:34:24.539Z,6.47
2017-12-21T14:36:52.885Z,6.18
2017-12-21T14:39:20.506Z,6.93
2017-12-21T14:41:48.086Z,7.57
2017-12-21T14:44:15.662Z,8.13
2017-12-21T14:46:43.302Z,11.02
2017-12-21T14:49:10.901Z,11.60
2017-12-21T14:51:38.481Z,11.02
2017-12-21T14:54:06.911Z,10.35
2017-12-21T14:56:34.499Z,11.85
2017-12-21T14:59:02.090Z,12.52
2017-12-21T15:01:29.709Z,11.25
2017-12-21T15:03:57.288Z,12.55
2017-12-21T15:06:25.625Z,12.05
2017-12-21T15:08:53.229Z,12.98
2017-12-21T15:11:21.573Z,13.77
2017-12-21T15:13:49.190Z,15.50
2017-12-21T15:16:16.770Z,13.45
2017-12-21T15:18:44.348Z,13.62
2017-12-21T15:21:12.008Z,14.68
2017-12-21T15:23:39.598Z,13.15
2017-12-21T15:26:07.990Z,12.18
2017-12-21T15:28:35.582Z,9.88
2017-12-21T15:31:03.163Z,11.93
2017-12-21T15:33:30.782Z,10.13
2017-12-21T15:35:58.366Z,11.82
2017-12-21T15:38:25.938Z,7.93
2017-12-21T15:40:53.562Z,5.80
2017-12-21T15:43:21.213Z,4.75
2017-12-21T15:45:48.787Z,4.12
2017-12-21T15:48:16.362Z,4.70
2017-12-21T15:50:43.961Z,6.05
2017-12-21T15:53:12.345Z,6.85
2017-12-21T15:55:40.686Z,5.32
2017-12-21T15:58:08.275Z,5.32
2017-12-21T16:00:36.646Z,5.43
2017-12-21T16:03:04.227Z,6.40
2017-12-21T16:05:31.818Z,7.43
2017-12-21T16:07:59.430Z,7.22
2017-12-21T16:10:27.774Z,11.00
2017-12-21T16:12:55.350Z,16.75
2017-12-21T16:15:22.956Z,12.65
2017-12-21T16:17:50.537Z,10.75
2017-12-21T16:20:18.173Z,10.20
2017-12-21T16:22:45.754Z,12.07
2017-12-21T16:25:13.336Z,12.65
2017-12-21T16:27:40.974Z,10.95
2017-12-21T16:30:08.635Z,11.48
2017-12-21T16:32:36.205Z,10.90
2017-12-21T16:35:03.833Z,10.98
2017-12-21T16:37:31.417Z,13.10
2017-12-21T16:39:59.033Z,12.82
2017-12-21T16:42:27.444Z,13.60
2017-12-21T16:44:55.028Z,15.48
2017-12-21T16:47:22.604Z,12.00
2017-12-21T16:49:50.269Z,13.45
2017-12-21T16:52:18.610Z,13.82
2017-12-21T16:54:46.197Z,14.65
2017-12-21T16:57:13.830Z,15.05
2017-12-21T16:59:41.410Z,13.73
2017-12-21T17:02:08.987Z,11.15
2017-12-21T17:04:37.357Z,12.00
2017-12-21T17:07:05.701Z,10.27
2017-12-21T17:09:33.337Z,11.30
2017-12-21T17:12:03.030Z,10.27
2017-12-21T17:14:30.714Z,8.43
2017-12-21T17:16:58.314Z,8.75
2017-12-21T17:19:25.909Z,8.55
2017-12-21T17:21:53.490Z,8.75
2017-12-21T17:24:21.149Z,8.70
2017-12-21T17:26:48.733Z,8.90
2017-12-21T17:29:16.310Z,8.15
2017-12-21T17:31:44.034Z,11.80
2017-12-21T17:34:11.614Z,10.32
2017-12-21T17:36:39.205Z,10.82
2017-12-21T17:39:07.608Z,11.40
2017-12-21T17:41:35.185Z,17.02
2017-12-21T17:44:02.851Z,25.83
2017-12-21T17:46:30.456Z,18.23
2017-12-21T17:48:58.069Z,16.20
2017-12-21T17:51:25.715Z,19.90
2017-12-21T17:53:53.289Z,19.23
2017-12-21T17:56:20.872Z,18.75
2017-12-21T17:58:48.480Z,18.65
2017-12-21T18:01:16.061Z,18.02
2017-12-21T18:03:43.678Z,17.92
2017-12-21T18:06:12.021Z,18.67
2017-12-21T18:08:39.602Z,20.48
2017-12-21T18:11:07.197Z,19.10
2017-12-21T18:13:34.778Z,19.02
2017-12-21T18:16:02.357Z,19.08
2017-12-21T18:18:29.962Z,17.90
2017-12-21T18:20:58.613Z,18.12
2017-12-21T18:23:26.305Z,17.58
2017-12-21T18:25:53.908Z,18.27
2017-12-21T18:28:21.501Z,18.30
2017-12-21T18:30:49.869Z,17.27
2017-12-21T18:33:17.501Z,17.95
2017-12-21T18:35:45.087Z,18.67
2017-12-21T18:38:13.449Z,18.45
2017-12-21T18:40:41.057Z,18.12
2017-12-21T18:43:08.645Z,17.83
2017-12-21T18:45:36.265Z,19.50
2017-12-21T18:48:04.609Z,21.85
2017-12-21T18:50:32.231Z,20.83
2017-12-21T18:52:59.853Z,18.42
2017-12-21T18:55:28.202Z,18.80
2017-12-21T18:57:55.781Z,20.90
2017-12-21T19:00:23.391Z,21.37
2017-12-21T19:02:51.056Z,19.75
2017-12-21T19:05:18.637Z,20.45
2017-12-21T19:07:46.246Z,21.92
2017-12-21T19:10:13.834Z,22.42
2017-12-21T19:12:41.413Z,21.70
2017-12-21T19:15:09.022Z,21.30
2017-12-21T19:17:36.602Z,20.67
2017-12-21T19:20:04.674Z,18.75
2017-12-21T19:22:32.253Z,18.62
2017-12-21T19:24:59.833Z,19.20
2017-12-21T19:27:27.457Z,20.65
2017-12-21T19:29:55.033Z,19.12
2017-12-21T19:32:22.613Z,17.48
2017-12-21T19:34:50.213Z,19.10
2017-12-21T19:37:17.846Z,18.30
2017-12-21T19:39:46.238Z,17.25
2017-12-21T19:42:13.821Z,17.35
2017-12-21T19:44:41.450Z,16.75
2017-12-21T19:47:09.843Z,16.85
2017-12-21T19:49:37.426Z,19.15
2017-12-21T19:52:05.034Z,18.73
2017-12-21T19:54:33.422Z,18.80
2017-12-21T19:57:01.774Z,20.00
2017-12-21T19:59:29.450Z,19.75
2017-12-21T20:01:57.797Z,19.20
2017-12-21T20:04:26.194Z,19.73
2017-12-21T20:06:53.806Z,20.73
2017-12-21T20:09:21.381Z,19.75
2017-12-21T20:11:48.961Z,19.17
2017-12-21T20:14:16.614Z,22.00
2017-12-21T20:16:44.195Z,21.10
2017-12-21T20:19:12.545Z,20.02
2017-12-21T20:21:40.168Z,20.05
2017-12-21T20:24:07.744Z,21.52
2017-12-21T20:26:35.329Z,20.67
2017-12-21T20:29:02.989Z,19.40
2017-12-21T20:31:30.569Z,19.15
2017-12-21T20:33:58.914Z,19.23
2017-12-21T20:36:26.557Z,20.60
2017-12-21T20:38:54.129Z,20.05
2017-12-21T20:41:21.705Z,21.80
2017-12-21T20:43:49.325Z,19.87
2017-12-21T20:46:16.897Z,21.02
2017-12-21T20:48:44.478Z,19.45
2017-12-21T20:51:12.878Z,19.65
2017-12-21T20:53:41.221Z,19.12
2017-12-21T20:56:08.854Z,19.58
2017-12-21T20:58:36.440Z,21.60
2017-12-21T21:01:04.026Z,20.73
2017-12-21T21:03:31.649Z,19.48
2017-12-21T21:05:59.229Z,20.10
2017-12-21T21:08:26.813Z,20.00
2017-12-21T21:10:55.182Z,19.05
2017-12-21T21:13:23.530Z,18.27
2017-12-21T21:15:51.105Z,18.50
2017-12-21T21:18:18.717Z,18.90
2017-12-21T21:20:46.293Z,20.00
2017-12-21T21:23:13.871Z,21.50
2017-12-21T21:25:41.505Z,21.12
2017-12-21T21:28:09.078Z,19.48
2017-12-21T21:30:36.658Z,21.37
2017-12-21T21:33:04.268Z,21.35
2017-12-21T21:35:31.854Z,20.83
2017-12-21T21:37:59.433Z,22.15
2017-12-21T21:40:27.059Z,20.65
2017-12-21T21:42:54.633Z,19.90
2017-12-21T21:45:22.205Z,22.00
2017-12-21T21:47:49.801Z,22.10
2017-12-21T21:50:18.149Z,20.52
2017-12-21T21:52:45.753Z,20.23
2017-12-21T21:55:13.345Z,17.87
2017-12-21T21:57:40.926Z,17.67
2017-12-21T22:00:08.541Z,18.08
2017-12-21T22:02:36.117Z,15.95
2017-12-21T22:05:03.697Z,16.65
2017-12-21T22:07:31.297Z,16.15
2017-12-21T22:09:58.874Z,16.20
2017-12-21T22:12:26.488Z,16.90
2017-12-21T22:14:54.065Z,16.25
2017-12-21T22:17:22.414Z,17.27
2017-12-21T22:19:50.016Z,18.87
2017-12-21T22:22:17.597Z,16.67
2017-12-21T22:24:45.213Z,17.80
2017-12-21T22:27:13.553Z,16.50
2017-12-21T22:29:41.138Z,16.45
2017-12-21T22:32:09.550Z,15.63
2017-12-21T22:34:37.133Z,16.50
2017-12-21T22:37:04.714Z,16.73
2017-12-21T22:39:32.449Z,16.55
2017-12-21T22:42:00.021Z,16.73
2017-12-21T22:44:27.602Z,17.05
2017-12-21T22:46:55.993Z,18.30
2017-12-21T22:49:24.333Z,18.37
2017-12-21T22:51:51.905Z,20.90
2017-12-21T22:54:19.502Z,18.73
2017-12-21T22:56:47.085Z,19.48
2017-12-21T22:59:14.697Z,19.70
2017-12-21T23:01:42.276Z,20.70
2017-12-21T23:04:10.621Z,20.40
2017-12-21T23:06:38.245Z,19.65
2017-12-21T23:09:05.829Z,19.85
2017-12-21T23:11:33.414Z,18.95
2017-12-21T23:14:01.828Z,19.40
2017-12-21T23:16:29.402Z,18.55
2017-12-21T23:18:56.980Z,20.10
2017-12-21T23:21:24.593Z,19.50
2017-12-21T23:23:52.174Z,18.05
2017-12-21T23:26:19.757Z,18.67
2017-12-21T23:28:47.362Z,20.83
